Hovedside
METAR-TAF:

METAR-TAF

Lufthavner :

Florø lufthavn

Florø, Norge

breddegrad: 61-35N, lengdegrad: 005-02E, høyde over havet: 0 m

Gjeldene værobservasjon

Denne rapporten ble laget for 26 minutter siden, klokken 18:20 UTC
Vind 5 kt fra Øst-nordøst
Temperatur 3°C
Luftfuktighet 93%
Trykk 1035 hPa
Sikt 10 km eller mer

METAR: ENFL 191820Z 07005KT 9999 NSC 03/02 Q1035

Tid: 19:46 (18:46 UTC)

Varsel

Denne rapporten ble laget for 1 time og 46 minutter siden, klokken 17:00 UTC
Varsel gyldig fra 19. klokken 18 UTC til 19. klokken 21 UTC
Vind 8 kt fra Øst
Sikt 10 km eller mer
Få skyer i en høyde av 500 ft

TAF: ENFL 191700Z 1918/1921 10008KT 9999 FEW005

Værobservasjoner og værvarsel for over 4000 flyplasser (METAR- og TAF-rapporter).

Tilgjengelige stasjoner er representert av de røde og gule prikkene på kartet.

Hold musepekeren over prikken for å se navnet på stasjonen.

Klikk så for å se værobservasjoner og -varsler.

For å forandre kartet kan du klikke på den grønne knappen med svart kryss for å zoome inn, på den grønne knappen med strek for å zoome ut, eller på de grønne pilene for å se tilstøtende kart.


METAR-TAF: